sensor_id;sensor_type;location;lat;lon;timestamp;P1;durP1;ratioP1;P2;durP2;ratioP2
49548;SDS011;35450;44.518;7.466;2022-12-18T00:00:20;14.98;;;9.55;;
49548;SDS011;35450;44.518;7.466;2022-12-18T00:03:24;10.73;;;6.38;;
49548;SDS011;35450;44.518;7.466;2022-12-18T00:06:29;8.63;;;5.10;;
49548;SDS011;35450;44.518;7.466;2022-12-18T00:09:33;8.23;;;5.65;;
49548;SDS011;35450;44.518;7.466;2022-12-18T00:12:37;8.80;;;5.38;;
49548;SDS011;35450;44.518;7.466;2022-12-18T00:15:41;7.55;;;4.82;;
49548;SDS011;35450;44.518;7.466;2022-12-18T00:18:45;9.13;;;5.60;;
49548;SDS011;35450;44.518;7.466;2022-12-18T00:21:49;7.35;;;4.53;;
49548;SDS011;35450;44.518;7.466;2022-12-18T00:24:53;8.02;;;5.13;;
49548;SDS011;35450;44.518;7.466;2022-12-18T00:27:57;8.88;;;5.43;;
49548;SDS011;35450;44.518;7.466;2022-12-18T00:31:09;8.85;;;5.45;;
49548;SDS011;35450;44.518;7.466;2022-12-18T00:34:15;11.60;;;4.75;;
49548;SDS011;35450;44.518;7.466;2022-12-18T00:37:19;12.40;;;6.82;;
49548;SDS011;35450;44.518;7.466;2022-12-18T00:40:22;8.00;;;5.22;;
49548;SDS011;35450;44.518;7.466;2022-12-18T00:43:26;9.18;;;4.50;;
49548;SDS011;35450;44.518;7.466;2022-12-18T00:46:30;17.52;;;8.65;;
49548;SDS011;35450;44.518;7.466;2022-12-18T00:49:35;13.43;;;8.50;;
49548;SDS011;35450;44.518;7.466;2022-12-18T00:52:38;25.83;;;12.80;;
49548;SDS011;35450;44.518;7.466;2022-12-18T00:55:42;32.15;;;16.80;;
49548;SDS011;35450;44.518;7.466;2022-12-18T00:58:46;252.38;;;123.75;;
49548;SDS011;35450;44.518;7.466;2022-12-18T01:01:51;93.78;;;49.03;;
49548;SDS011;35450;44.518;7.466;2022-12-18T01:04:57;111.30;;;64.22;;
49548;SDS011;35450;44.518;7.466;2022-12-18T01:08:01;23.48;;;15.30;;
49548;SDS011;35450;44.518;7.466;2022-12-18T01:11:09;26.30;;;18.77;;
49548;SDS011;35450;44.518;7.466;2022-12-18T01:14:15;9.10;;;6.18;;
49548;SDS011;35450;44.518;7.466;2022-12-18T01:17:19;9.32;;;5.57;;
49548;SDS011;35450;44.518;7.466;2022-12-18T01:20:23;8.77;;;5.10;;
49548;SDS011;35450;44.518;7.466;2022-12-18T01:23:26;13.07;;;9.85;;
49548;SDS011;35450;44.518;7.466;2022-12-18T01:26:31;12.80;;;8.73;;
49548;SDS011;35450;44.518;7.466;2022-12-18T01:29:35;13.93;;;8.50;;
49548;SDS011;35450;44.518;7.466;2022-12-18T01:32:39;17.20;;;11.93;;
49548;SDS011;35450;44.518;7.466;2022-12-18T01:35:43;11.05;;;6.53;;
49548;SDS011;35450;44.518;7.466;2022-12-18T01:38:47;8.88;;;5.72;;
49548;SDS011;35450;44.518;7.466;2022-12-18T01:41:51;19.08;;;13.60;;
49548;SDS011;35450;44.518;7.466;2022-12-18T01:48:20;5.93;;;4.47;;
49548;SDS011;35450;44.518;7.466;2022-12-18T01:51:24;11.57;;;5.07;;
49548;SDS011;35450;44.518;7.466;2022-12-18T01:54:29;7.50;;;4.57;;
49548;SDS011;35450;44.518;7.466;2022-12-18T01:57:33;7.97;;;4.60;;
49548;SDS011;35450;44.518;7.466;2022-12-18T02:00:38;6.78;;;4.85;;
49548;SDS011;35450;44.518;7.466;2022-12-18T02:03:43;6.88;;;4.68;;
49548;SDS011;35450;44.518;7.466;2022-12-18T02:06:50;7.53;;;5.03;;
49548;SDS011;35450;44.518;7.466;2022-12-18T02:13:45;7.00;;;4.75;;
49548;SDS011;35450;44.518;7.466;2022-12-18T02:17:19;15.20;;;5.40;;
49548;SDS011;35450;44.518;7.466;2022-12-18T02:27:12;12.20;;;4.30;;
49548;SDS011;35450;44.518;7.466;2022-12-18T02:30:17;15.45;;;4.40;;
49548;SDS011;35450;44.518;7.466;2022-12-18T02:33:22;15.20;;;5.43;;
49548;SDS011;35450;44.518;7.466;2022-12-18T02:36:28;9.98;;;5.18;;
49548;SDS011;35450;44.518;7.466;2022-12-18T02:39:36;8.55;;;3.85;;
49548;SDS011;35450;44.518;7.466;2022-12-18T02:42:43;6.82;;;3.40;;
49548;SDS011;35450;44.518;7.466;2022-12-18T02:45:54;7.00;;;3.28;;
49548;SDS011;35450;44.518;7.466;2022-12-18T02:49:19;6.65;;;3.20;;
49548;SDS011;35450;44.518;7.466;2022-12-18T02:59:21;6.50;;;4.38;;
49548;SDS011;35450;44.518;7.466;2022-12-18T03:02:55;6.57;;;4.47;;
49548;SDS011;35450;44.518;7.466;2022-12-18T03:06:28;10.00;;;5.75;;
49548;SDS011;35450;44.518;7.466;2022-12-18T03:09:40;7.03;;;3.97;;
49548;SDS011;35450;44.518;7.466;2022-12-18T03:13:00;7.03;;;4.25;;
49548;SDS011;35450;44.518;7.466;2022-12-18T03:16:10;7.90;;;4.72;;
49548;SDS011;35450;44.518;7.466;2022-12-18T03:19:18;8.80;;;5.65;;
49548;SDS011;35450;44.518;7.466;2022-12-18T03:22:28;8.13;;;4.20;;
49548;SDS011;35450;44.518;7.466;2022-12-18T03:25:36;7.32;;;4.53;;
49548;SDS011;35450;44.518;7.466;2022-12-18T03:28:48;9.40;;;4.95;;
49548;SDS011;35450;44.518;7.466;2022-12-18T03:31:58;6.78;;;4.93;;
49548;SDS011;35450;44.518;7.466;2022-12-18T03:35:09;11.00;;;4.72;;
49548;SDS011;35450;44.518;7.466;2022-12-18T03:38:17;11.73;;;6.90;;
49548;SDS011;35450;44.518;7.466;2022-12-18T03:48:46;7.05;;;4.88;;
49548;SDS011;35450;44.518;7.466;2022-12-18T03:52:03;7.32;;;4.70;;
49548;SDS011;35450;44.518;7.466;2022-12-18T03:55:11;6.97;;;4.95;;
49548;SDS011;35450;44.518;7.466;2022-12-18T03:58:18;7.53;;;4.50;;
49548;SDS011;35450;44.518;7.466;2022-12-18T04:01:40;7.00;;;4.47;;
49548;SDS011;35450;44.518;7.466;2022-12-18T04:04:48;7.35;;;4.45;;
49548;SDS011;35450;44.518;7.466;2022-12-18T04:08:01;5.80;;;4.22;;
49548;SDS011;35450;44.518;7.466;2022-12-18T04:11:07;7.22;;;4.40;;
49548;SDS011;35450;44.518;7.466;2022-12-18T04:14:12;5.88;;;3.65;;
49548;SDS011;35450;44.518;7.466;2022-12-18T04:17:16;6.30;;;4.65;;
49548;SDS011;35450;44.518;7.466;2022-12-18T04:20:21;6.38;;;4.05;;
49548;SDS011;35450;44.518;7.466;2022-12-18T04:23:25;5.95;;;3.85;;
49548;SDS011;35450;44.518;7.466;2022-12-18T04:26:32;8.50;;;4.85;;
49548;SDS011;35450;44.518;7.466;2022-12-18T04:29:56;5.82;;;3.88;;
49548;SDS011;35450;44.518;7.466;2022-12-18T04:33:00;6.85;;;4.78;;
49548;SDS011;35450;44.518;7.466;2022-12-18T04:36:06;5.68;;;4.35;;
49548;SDS011;35450;44.518;7.466;2022-12-18T04:39:11;6.68;;;4.45;;
49548;SDS011;35450;44.518;7.466;2022-12-18T04:42:16;7.38;;;4.55;;
49548;SDS011;35450;44.518;7.466;2022-12-18T04:45:20;9.55;;;4.72;;
49548;SDS011;35450;44.518;7.466;2022-12-18T04:48:23;9.48;;;4.63;;
49548;SDS011;35450;44.518;7.466;2022-12-18T04:51:27;9.40;;;5.43;;
49548;SDS011;35450;44.518;7.466;2022-12-18T04:54:31;7.85;;;5.43;;
49548;SDS011;35450;44.518;7.466;2022-12-18T04:57:35;7.18;;;4.95;;
49548;SDS011;35450;44.518;7.466;2022-12-18T05:00:39;8.20;;;4.80;;
49548;SDS011;35450;44.518;7.466;2022-12-18T05:03:43;7.15;;;4.78;;
49548;SDS011;35450;44.518;7.466;2022-12-18T05:06:47;9.65;;;5.10;;
49548;SDS011;35450;44.518;7.466;2022-12-18T05:09:51;6.53;;;4.55;;
49548;SDS011;35450;44.518;7.466;2022-12-18T05:12:55;8.40;;;5.28;;
49548;SDS011;35450;44.518;7.466;2022-12-18T05:16:01;8.27;;;5.75;;
49548;SDS011;35450;44.518;7.466;2022-12-18T05:19:06;11.15;;;6.40;;
49548;SDS011;35450;44.518;7.466;2022-12-18T05:22:11;10.38;;;6.78;;
49548;SDS011;35450;44.518;7.466;2022-12-18T05:25:15;10.57;;;7.18;;
49548;SDS011;35450;44.518;7.466;2022-12-18T05:28:19;10.90;;;7.30;;
49548;SDS011;35450;44.518;7.466;2022-12-18T05:31:23;13.18;;;7.78;;
49548;SDS011;35450;44.518;7.466;2022-12-18T05:34:27;9.70;;;7.53;;
49548;SDS011;35450;44.518;7.466;2022-12-18T05:37:33;11.55;;;7.35;;
49548;SDS011;35450;44.518;7.466;2022-12-18T05:40:37;10.95;;;7.38;;
49548;SDS011;35450;44.518;7.466;2022-12-18T05:43:44;10.73;;;7.13;;
49548;SDS011;35450;44.518;7.466;2022-12-18T05:46:48;12.55;;;8.32;;
49548;SDS011;35450;44.518;7.466;2022-12-18T05:49:52;12.63;;;7.82;;
49548;SDS011;35450;44.518;7.466;2022-12-18T05:52:55;17.58;;;8.40;;
49548;SDS011;35450;44.518;7.466;2022-12-18T05:56:00;67.90;;;34.42;;
49548;SDS011;35450;44.518;7.466;2022-12-18T05:59:06;46.28;;;23.40;;
49548;SDS011;35450;44.518;7.466;2022-12-18T06:02:10;19.27;;;11.18;;
49548;SDS011;35450;44.518;7.466;2022-12-18T06:05:14;15.00;;;9.65;;
49548;SDS011;35450;44.518;7.466;2022-12-18T06:08:18;9.95;;;6.05;;
49548;SDS011;35450;44.518;7.466;2022-12-18T06:11:23;9.48;;;5.90;;
49548;SDS011;35450;44.518;7.466;2022-12-18T06:14:29;12.32;;;7.65;;
49548;SDS011;35450;44.518;7.466;2022-12-18T06:17:33;13.13;;;8.60;;
49548;SDS011;35450;44.518;7.466;2022-12-18T06:20:37;13.13;;;7.57;;
49548;SDS011;35450;44.518;7.466;2022-12-18T06:23:42;10.15;;;6.80;;
49548;SDS011;35450;44.518;7.466;2022-12-18T06:26:46;12.82;;;6.78;;
49548;SDS011;35450;44.518;7.466;2022-12-18T06:29:50;10.65;;;6.70;;
49548;SDS011;35450;44.518;7.466;2022-12-18T06:32:54;13.43;;;7.50;;
49548;SDS011;35450;44.518;7.466;2022-12-18T06:36:02;12.73;;;7.18;;
49548;SDS011;35450;44.518;7.466;2022-12-18T06:39:14;9.15;;;5.68;;
49548;SDS011;35450;44.518;7.466;2022-12-18T06:42:18;17.92;;;9.18;;
49548;SDS011;35450;44.518;7.466;2022-12-18T06:45:25;9.40;;;5.95;;
49548;SDS011;35450;44.518;7.466;2022-12-18T06:48:29;8.32;;;5.60;;
49548;SDS011;35450;44.518;7.466;2022-12-18T06:51:34;10.43;;;6.32;;
49548;SDS011;35450;44.518;7.466;2022-12-18T06:54:38;11.30;;;7.68;;
49548;SDS011;35450;44.518;7.466;2022-12-18T06:57:42;11.70;;;8.25;;
49548;SDS011;35450;44.518;7.466;2022-12-18T07:00:46;12.02;;;7.68;;
49548;SDS011;35450;44.518;7.466;2022-12-18T07:03:53;17.75;;;10.32;;
49548;SDS011;35450;44.518;7.466;2022-12-18T07:06:58;25.17;;;13.73;;
49548;SDS011;35450;44.518;7.466;2022-12-18T07:10:07;20.15;;;11.30;;
49548;SDS011;35450;44.518;7.466;2022-12-18T07:13:11;17.20;;;10.00;;
49548;SDS011;35450;44.518;7.466;2022-12-18T07:16:18;17.38;;;9.88;;
49548;SDS011;35450;44.518;7.466;2022-12-18T07:19:23;16.08;;;9.98;;
49548;SDS011;35450;44.518;7.466;2022-12-18T07:22:28;19.35;;;11.45;;
49548;SDS011;35450;44.518;7.466;2022-12-18T07:25:35;25.73;;;12.98;;
49548;SDS011;35450;44.518;7.466;2022-12-18T07:28:40;20.92;;;13.50;;
49548;SDS011;35450;44.518;7.466;2022-12-18T07:31:45;19.42;;;12.10;;
49548;SDS011;35450;44.518;7.466;2022-12-18T07:34:49;17.33;;;9.43;;
49548;SDS011;35450;44.518;7.466;2022-12-18T07:37:53;14.15;;;8.60;;
49548;SDS011;35450;44.518;7.466;2022-12-18T07:41:04;12.88;;;7.22;;
49548;SDS011;35450;44.518;7.466;2022-12-18T07:44:15;13.32;;;8.27;;
49548;SDS011;35450;44.518;7.466;2022-12-18T07:47:19;17.42;;;9.95;;
49548;SDS011;35450;44.518;7.466;2022-12-18T07:50:24;16.00;;;9.60;;
49548;SDS011;35450;44.518;7.466;2022-12-18T07:53:28;20.13;;;11.40;;
49548;SDS011;35450;44.518;7.466;2022-12-18T07:56:32;20.05;;;12.40;;
49548;SDS011;35450;44.518;7.466;2022-12-18T07:59:36;18.95;;;12.38;;
49548;SDS011;35450;44.518;7.466;2022-12-18T08:02:40;21.20;;;11.77;;
49548;SDS011;35450;44.518;7.466;2022-12-18T08:05:44;19.17;;;11.48;;
49548;SDS011;35450;44.518;7.466;2022-12-18T08:08:47;20.33;;;12.48;;
49548;SDS011;35450;44.518;7.466;2022-12-18T08:11:51;24.35;;;14.07;;
49548;SDS011;35450;44.518;7.466;2022-12-18T08:14:55;27.83;;;17.33;;
49548;SDS011;35450;44.518;7.466;2022-12-18T08:17:59;35.67;;;22.20;;
49548;SDS011;35450;44.518;7.466;2022-12-18T08:21:17;42.08;;;25.65;;
49548;SDS011;35450;44.518;7.466;2022-12-18T08:24:24;64.50;;;36.30;;
49548;SDS011;35450;44.518;7.466;2022-12-18T08:27:29;60.00;;;35.10;;
49548;SDS011;35450;44.518;7.466;2022-12-18T08:30:32;37.97;;;22.88;;
49548;SDS011;35450;44.518;7.466;2022-12-18T08:33:37;33.70;;;20.30;;
49548;SDS011;35450;44.518;7.466;2022-12-18T08:36:42;30.15;;;16.92;;
49548;SDS011;35450;44.518;7.466;2022-12-18T08:39:46;22.88;;;14.77;;
49548;SDS011;35450;44.518;7.466;2022-12-18T08:42:50;25.38;;;15.80;;
49548;SDS011;35450;44.518;7.466;2022-12-18T08:46:13;22.40;;;14.60;;
49548;SDS011;35450;44.518;7.466;2022-12-18T08:49:17;20.48;;;14.23;;
49548;SDS011;35450;44.518;7.466;2022-12-18T08:52:22;16.70;;;12.18;;
49548;SDS011;35450;44.518;7.466;2022-12-18T08:55:26;17.65;;;12.15;;
49548;SDS011;35450;44.518;7.466;2022-12-18T08:58:30;19.27;;;14.93;;
49548;SDS011;35450;44.518;7.466;2022-12-18T09:01:34;19.58;;;12.10;;
49548;SDS011;35450;44.518;7.466;2022-12-18T09:04:38;20.55;;;13.65;;
49548;SDS011;35450;44.518;7.466;2022-12-18T09:07:43;22.05;;;12.90;;
49548;SDS011;35450;44.518;7.466;2022-12-18T09:10:48;26.20;;;14.63;;
49548;SDS011;35450;44.518;7.466;2022-12-18T09:13:53;26.55;;;15.98;;
49548;SDS011;35450;44.518;7.466;2022-12-18T09:16:58;28.05;;;17.13;;
49548;SDS011;35450;44.518;7.466;2022-12-18T09:20:02;26.77;;;15.77;;
49548;SDS011;35450;44.518;7.466;2022-12-18T09:23:06;35.10;;;19.42;;
49548;SDS011;35450;44.518;7.466;2022-12-18T09:26:11;31.98;;;19.30;;
49548;SDS011;35450;44.518;7.466;2022-12-18T09:29:15;34.30;;;22.25;;
49548;SDS011;35450;44.518;7.466;2022-12-18T09:32:19;32.97;;;19.77;;
49548;SDS011;35450;44.518;7.466;2022-12-18T09:35:23;29.00;;;18.63;;
49548;SDS011;35450;44.518;7.466;2022-12-18T09:38:27;37.05;;;21.15;;
49548;SDS011;35450;44.518;7.466;2022-12-18T09:41:37;35.20;;;21.23;;
49548;SDS011;35450;44.518;7.466;2022-12-18T09:44:50;36.65;;;21.00;;
49548;SDS011;35450;44.518;7.466;2022-12-18T09:47:56;32.08;;;20.10;;
49548;SDS011;35450;44.518;7.466;2022-12-18T09:51:02;31.35;;;20.00;;
49548;SDS011;35450;44.518;7.466;2022-12-18T09:54:14;25.35;;;15.60;;
49548;SDS011;35450;44.518;7.466;2022-12-18T09:57:23;31.98;;;19.42;;
49548;SDS011;35450;44.518;7.466;2022-12-18T10:00:28;32.33;;;20.02;;
49548;SDS011;35450;44.518;7.466;2022-12-18T10:03:32;44.88;;;24.60;;
49548;SDS011;35450;44.518;7.466;2022-12-18T10:10:10;36.58;;;20.55;;
49548;SDS011;35450;44.518;7.466;2022-12-18T10:13:29;27.70;;;15.18;;
49548;SDS011;35450;44.518;7.466;2022-12-18T10:23:33;45.08;;;23.88;;
49548;SDS011;35450;44.518;7.466;2022-12-18T10:26:55;40.75;;;23.50;;
49548;SDS011;35450;44.518;7.466;2022-12-18T10:30:20;37.00;;;21.25;;
49548;SDS011;35450;44.518;7.466;2022-12-18T10:33:29;38.13;;;22.77;;
49548;SDS011;35450;44.518;7.466;2022-12-18T10:36:36;40.10;;;24.30;;
49548;SDS011;35450;44.518;7.466;2022-12-18T10:39:40;45.50;;;28.85;;
49548;SDS011;35450;44.518;7.466;2022-12-18T10:42:45;46.63;;;28.80;;
49548;SDS011;35450;44.518;7.466;2022-12-18T10:49:18;45.75;;;26.88;;
49548;SDS011;35450;44.518;7.466;2022-12-18T10:52:25;42.17;;;26.00;;
49548;SDS011;35450;44.518;7.466;2022-12-18T10:55:31;41.88;;;25.23;;
49548;SDS011;35450;44.518;7.466;2022-12-18T10:58:38;36.47;;;24.08;;
49548;SDS011;35450;44.518;7.466;2022-12-18T11:04:58;25.55;;;14.48;;
49548;SDS011;35450;44.518;7.466;2022-12-18T11:08:02;20.65;;;13.18;;
49548;SDS011;35450;44.518;7.466;2022-12-18T11:11:09;24.45;;;13.30;;
49548;SDS011;35450;44.518;7.466;2022-12-18T11:14:24;19.17;;;12.73;;
49548;SDS011;35450;44.518;7.466;2022-12-18T11:17:36;18.48;;;12.02;;
49548;SDS011;35450;44.518;7.466;2022-12-18T11:20:40;21.60;;;11.73;;
49548;SDS011;35450;44.518;7.466;2022-12-18T11:23:50;28.20;;;13.05;;
49548;SDS011;35450;44.518;7.466;2022-12-18T11:27:03;29.52;;;14.60;;
49548;SDS011;35450;44.518;7.466;2022-12-18T11:30:10;28.27;;;13.88;;
49548;SDS011;35450;44.518;7.466;2022-12-18T11:33:21;28.02;;;12.18;;
49548;SDS011;35450;44.518;7.466;2022-12-18T11:36:27;22.38;;;12.25;;
49548;SDS011;35450;44.518;7.466;2022-12-18T11:39:39;22.00;;;12.15;;
49548;SDS011;35450;44.518;7.466;2022-12-18T11:42:55;18.80;;;11.93;;
49548;SDS011;35450;44.518;7.466;2022-12-18T11:46:07;22.38;;;14.07;;
49548;SDS011;35450;44.518;7.466;2022-12-18T11:49:17;24.33;;;13.80;;
49548;SDS011;35450;44.518;7.466;2022-12-18T12:29:41;16.35;;;10.93;;
49548;SDS011;35450;44.518;7.466;2022-12-18T12:36:41;16.20;;;11.68;;
49548;SDS011;35450;44.518;7.466;2022-12-18T12:40:03;17.17;;;12.00;;
49548;SDS011;35450;44.518;7.466;2022-12-18T12:43:12;21.55;;;14.20;;
49548;SDS011;35450;44.518;7.466;2022-12-18T12:46:19;28.35;;;17.33;;
49548;SDS011;35450;44.518;7.466;2022-12-18T12:49:25;21.10;;;15.18;;
49548;SDS011;35450;44.518;7.466;2022-12-18T12:52:42;21.60;;;14.43;;
49548;SDS011;35450;44.518;7.466;2022-12-18T12:55:49;23.73;;;14.23;;
49548;SDS011;35450;44.518;7.466;2022-12-18T12:59:13;17.75;;;12.63;;
49548;SDS011;35450;44.518;7.466;2022-12-18T13:02:39;18.23;;;14.50;;
49548;SDS011;35450;44.518;7.466;2022-12-18T13:05:59;24.58;;;17.25;;
49548;SDS011;35450;44.518;7.466;2022-12-18T13:09:08;21.15;;;14.75;;
49548;SDS011;35450;44.518;7.466;2022-12-18T13:12:12;24.90;;;16.52;;
49548;SDS011;35450;44.518;7.466;2022-12-18T13:18:48;24.00;;;16.52;;
49548;SDS011;35450;44.518;7.466;2022-12-18T13:21:54;22.65;;;16.50;;
49548;SDS011;35450;44.518;7.466;2022-12-18T13:24:59;21.90;;;16.58;;
49548;SDS011;35450;44.518;7.466;2022-12-18T13:34:34;31.95;;;21.42;;
49548;SDS011;35450;44.518;7.466;2022-12-18T13:37:40;30.23;;;21.77;;
49548;SDS011;35450;44.518;7.466;2022-12-18T13:43:56;34.47;;;24.30;;
49548;SDS011;35450;44.518;7.466;2022-12-18T13:50:36;33.22;;;23.70;;
49548;SDS011;35450;44.518;7.466;2022-12-18T13:53:43;33.08;;;23.40;;
49548;SDS011;35450;44.518;7.466;2022-12-18T13:56:51;30.80;;;21.70;;
49548;SDS011;35450;44.518;7.466;2022-12-18T13:59:55;31.85;;;22.85;;
49548;SDS011;35450;44.518;7.466;2022-12-18T14:03:00;32.28;;;22.88;;
49548;SDS011;35450;44.518;7.466;2022-12-18T14:06:05;34.97;;;22.92;;
49548;SDS011;35450;44.518;7.466;2022-12-18T14:09:20;31.13;;;22.90;;
49548;SDS011;35450;44.518;7.466;2022-12-18T14:12:30;36.42;;;24.83;;
49548;SDS011;35450;44.518;7.466;2022-12-18T14:15:54;31.77;;;21.90;;
49548;SDS011;35450;44.518;7.466;2022-12-18T14:18:59;34.10;;;22.55;;
49548;SDS011;35450;44.518;7.466;2022-12-18T14:22:03;35.38;;;25.08;;
49548;SDS011;35450;44.518;7.466;2022-12-18T14:25:23;39.05;;;23.98;;
49548;SDS011;35450;44.518;7.466;2022-12-18T14:28:30;33.60;;;22.73;;
49548;SDS011;35450;44.518;7.466;2022-12-18T14:31:34;34.80;;;21.95;;
49548;SDS011;35450;44.518;7.466;2022-12-18T14:34:38;35.08;;;23.20;;
49548;SDS011;35450;44.518;7.466;2022-12-18T14:37:42;37.95;;;24.13;;
49548;SDS011;35450;44.518;7.466;2022-12-18T14:40:46;58.03;;;31.85;;
49548;SDS011;35450;44.518;7.466;2022-12-18T14:43:54;33.75;;;23.27;;
49548;SDS011;35450;44.518;7.466;2022-12-18T14:47:12;36.17;;;24.08;;
49548;SDS011;35450;44.518;7.466;2022-12-18T14:50:18;34.88;;;22.92;;
49548;SDS011;35450;44.518;7.466;2022-12-18T14:57:04;41.88;;;23.90;;
49548;SDS011;35450;44.518;7.466;2022-12-18T15:03:27;35.38;;;20.90;;
49548;SDS011;35450;44.518;7.466;2022-12-18T15:06:35;29.88;;;20.70;;
49548;SDS011;35450;44.518;7.466;2022-12-18T15:09:41;30.35;;;20.30;;
49548;SDS011;35450;44.518;7.466;2022-12-18T15:16:04;66.22;;;35.95;;
49548;SDS011;35450;44.518;7.466;2022-12-18T15:19:16;35.80;;;21.05;;
49548;SDS011;35450;44.518;7.466;2022-12-18T15:22:20;33.85;;;20.35;;
49548;SDS011;35450;44.518;7.466;2022-12-18T15:25:34;30.27;;;20.52;;
49548;SDS011;35450;44.518;7.466;2022-12-18T15:28:45;23.90;;;17.77;;
49548;SDS011;35450;44.518;7.466;2022-12-18T15:38:11;39.72;;;25.00;;
49548;SDS011;35450;44.518;7.466;2022-12-18T15:41:19;34.30;;;21.67;;
49548;SDS011;35450;44.518;7.466;2022-12-18T15:44:25;29.50;;;20.50;;
49548;SDS011;35450;44.518;7.466;2022-12-18T15:47:29;33.85;;;20.88;;
49548;SDS011;35450;44.518;7.466;2022-12-18T15:50:34;31.80;;;21.98;;
49548;SDS011;35450;44.518;7.466;2022-12-18T15:53:38;34.63;;;19.80;;
49548;SDS011;35450;44.518;7.466;2022-12-18T15:56:42;29.15;;;19.42;;
49548;SDS011;35450;44.518;7.466;2022-12-18T16:00:05;32.22;;;20.30;;
49548;SDS011;35450;44.518;7.466;2022-12-18T16:03:09;29.13;;;19.35;;
49548;SDS011;35450;44.518;7.466;2022-12-18T16:06:13;27.55;;;19.17;;
49548;SDS011;35450;44.518;7.466;2022-12-18T16:09:17;25.25;;;19.63;;
49548;SDS011;35450;44.518;7.466;2022-12-18T16:12:22;26.52;;;19.70;;
49548;SDS011;35450;44.518;7.466;2022-12-18T16:15:27;31.48;;;19.75;;
49548;SDS011;35450;44.518;7.466;2022-12-18T16:18:31;30.15;;;19.98;;
49548;SDS011;35450;44.518;7.466;2022-12-18T16:21:35;30.92;;;19.85;;
49548;SDS011;35450;44.518;7.466;2022-12-18T16:24:39;28.15;;;18.52;;
49548;SDS011;35450;44.518;7.466;2022-12-18T16:27:43;28.17;;;19.70;;
49548;SDS011;35450;44.518;7.466;2022-12-18T16:30:47;40.50;;;20.83;;
49548;SDS011;35450;44.518;7.466;2022-12-18T16:34:09;52.00;;;31.90;;
49548;SDS011;35450;44.518;7.466;2022-12-18T16:37:25;32.20;;;22.80;;
49548;SDS011;35450;44.518;7.466;2022-12-18T16:40:30;39.72;;;22.83;;
49548;SDS011;35450;44.518;7.466;2022-12-18T16:43:35;36.58;;;22.30;;
49548;SDS011;35450;44.518;7.466;2022-12-18T16:46:39;30.35;;;21.85;;
49548;SDS011;35450;44.518;7.466;2022-12-18T16:49:45;30.00;;;20.27;;
49548;SDS011;35450;44.518;7.466;2022-12-18T16:52:51;30.70;;;18.92;;
49548;SDS011;35450;44.518;7.466;2022-12-18T16:55:55;29.30;;;20.08;;
49548;SDS011;35450;44.518;7.466;2022-12-18T16:59:00;28.83;;;18.15;;
49548;SDS011;35450;44.518;7.466;2022-12-18T17:02:16;27.75;;;19.55;;
49548;SDS011;35450;44.518;7.466;2022-12-18T17:05:28;25.45;;;18.60;;
49548;SDS011;35450;44.518;7.466;2022-12-18T17:08:31;28.05;;;19.02;;
49548;SDS011;35450;44.518;7.466;2022-12-18T17:11:35;24.83;;;17.08;;
49548;SDS011;35450;44.518;7.466;2022-12-18T17:14:39;23.65;;;16.23;;
49548;SDS011;35450;44.518;7.466;2022-12-18T17:17:43;24.17;;;16.77;;
49548;SDS011;35450;44.518;7.466;2022-12-18T17:20:48;28.30;;;17.75;;
49548;SDS011;35450;44.518;7.466;2022-12-18T17:23:52;25.10;;;17.65;;
49548;SDS011;35450;44.518;7.466;2022-12-18T17:26:56;26.38;;;18.05;;
49548;SDS011;35450;44.518;7.466;2022-12-18T17:30:01;24.95;;;17.80;;
49548;SDS011;35450;44.518;7.466;2022-12-18T17:33:06;25.30;;;17.52;;
49548;SDS011;35450;44.518;7.466;2022-12-18T17:36:12;29.42;;;18.42;;
49548;SDS011;35450;44.518;7.466;2022-12-18T17:39:18;26.38;;;17.27;;
49548;SDS011;35450;44.518;7.466;2022-12-18T17:42:22;26.20;;;17.58;;
49548;SDS011;35450;44.518;7.466;2022-12-18T17:45:26;24.20;;;17.23;;
49548;SDS011;35450;44.518;7.466;2022-12-18T17:48:30;25.55;;;17.88;;
49548;SDS011;35450;44.518;7.466;2022-12-18T17:51:35;29.48;;;17.58;;
49548;SDS011;35450;44.518;7.466;2022-12-18T17:54:40;24.27;;;16.80;;
49548;SDS011;35450;44.518;7.466;2022-12-18T17:57:46;24.77;;;16.20;;
49548;SDS011;35450;44.518;7.466;2022-12-18T18:00:50;23.40;;;15.45;;
49548;SDS011;35450;44.518;7.466;2022-12-18T18:03:53;25.17;;;16.38;;
49548;SDS011;35450;44.518;7.466;2022-12-18T18:07:02;23.58;;;15.95;;
49548;SDS011;35450;44.518;7.466;2022-12-18T18:10:07;20.98;;;14.80;;
49548;SDS011;35450;44.518;7.466;2022-12-18T18:13:22;22.58;;;15.80;;
49548;SDS011;35450;44.518;7.466;2022-12-18T18:16:47;23.95;;;16.35;;
49548;SDS011;35450;44.518;7.466;2022-12-18T18:19:52;22.15;;;15.38;;
49548;SDS011;35450;44.518;7.466;2022-12-18T18:22:56;25.80;;;16.85;;
49548;SDS011;35450;44.518;7.466;2022-12-18T18:26:04;24.75;;;15.98;;
49548;SDS011;35450;44.518;7.466;2022-12-18T18:29:11;22.02;;;15.95;;
49548;SDS011;35450;44.518;7.466;2022-12-18T18:32:17;21.80;;;15.38;;
49548;SDS011;35450;44.518;7.466;2022-12-18T18:35:21;24.77;;;16.08;;
49548;SDS011;35450;44.518;7.466;2022-12-18T18:38:26;21.70;;;15.27;;
49548;SDS011;35450;44.518;7.466;2022-12-18T18:41:31;26.60;;;19.35;;
49548;SDS011;35450;44.518;7.466;2022-12-18T18:44:35;21.20;;;15.55;;
49548;SDS011;35450;44.518;7.466;2022-12-18T18:47:39;22.02;;;15.88;;
49548;SDS011;35450;44.518;7.466;2022-12-18T18:50:43;25.05;;;17.42;;
49548;SDS011;35450;44.518;7.466;2022-12-18T18:53:49;42.72;;;24.65;;
49548;SDS011;35450;44.518;7.466;2022-12-18T18:56:54;32.08;;;19.15;;
49548;SDS011;35450;44.518;7.466;2022-12-18T18:59:58;26.30;;;16.90;;
49548;SDS011;35450;44.518;7.466;2022-12-18T19:03:02;30.73;;;18.65;;
49548;SDS011;35450;44.518;7.466;2022-12-18T19:06:06;35.05;;;21.63;;
49548;SDS011;35450;44.518;7.466;2022-12-18T19:09:11;29.20;;;19.55;;
49548;SDS011;35450;44.518;7.466;2022-12-18T19:12:15;27.10;;;19.00;;
49548;SDS011;35450;44.518;7.466;2022-12-18T19:15:38;31.13;;;20.65;;
49548;SDS011;35450;44.518;7.466;2022-12-18T19:18:42;31.58;;;19.77;;
49548;SDS011;35450;44.518;7.466;2022-12-18T19:21:46;31.20;;;19.63;;
49548;SDS011;35450;44.518;7.466;2022-12-18T19:24:50;30.48;;;20.23;;
49548;SDS011;35450;44.518;7.466;2022-12-18T19:27:54;26.83;;;18.42;;
49548;SDS011;35450;44.518;7.466;2022-12-18T19:30:59;25.13;;;16.88;;
49548;SDS011;35450;44.518;7.466;2022-12-18T19:34:05;26.13;;;17.73;;
49548;SDS011;35450;44.518;7.466;2022-12-18T19:37:09;27.95;;;19.08;;
49548;SDS011;35450;44.518;7.466;2022-12-18T19:40:13;26.75;;;19.17;;
49548;SDS011;35450;44.518;7.466;2022-12-18T19:43:17;31.17;;;20.88;;
49548;SDS011;35450;44.518;7.466;2022-12-18T19:46:21;29.17;;;20.08;;
49548;SDS011;35450;44.518;7.466;2022-12-18T19:49:26;34.30;;;22.48;;
49548;SDS011;35450;44.518;7.466;2022-12-18T19:52:30;33.67;;;21.45;;
49548;SDS011;35450;44.518;7.466;2022-12-18T19:55:38;31.80;;;21.38;;
49548;SDS011;35450;44.518;7.466;2022-12-18T19:58:44;26.60;;;18.08;;
49548;SDS011;35450;44.518;7.466;2022-12-18T20:01:48;31.45;;;20.38;;
49548;SDS011;35450;44.518;7.466;2022-12-18T20:04:52;30.30;;;19.98;;
49548;SDS011;35450;44.518;7.466;2022-12-18T20:07:56;29.60;;;20.70;;
49548;SDS011;35450;44.518;7.466;2022-12-18T20:11:00;27.27;;;19.10;;
49548;SDS011;35450;44.518;7.466;2022-12-18T20:14:04;30.40;;;20.75;;
49548;SDS011;35450;44.518;7.466;2022-12-18T20:17:08;39.30;;;24.15;;
49548;SDS011;35450;44.518;7.466;2022-12-18T20:20:12;28.58;;;19.15;;